Morehead, Kansas
Current Conditions -  °F | °C
As of 10:52 AM on Friday 19 Dec 2014 (Local Time) from KPPF Reporting Station
Overcast Overcast  
Wind Chill: 37°   Ceiling: 700
Heat Index: 37°   Visibility: 7mi
Dew Point: 34°   Wind: 0mph
Humidity: 89%   Direction: NA
Pressure: 30.28"   Gusts: NA
Location:  37.4373°N, 95.4594°W
Report Text: KPPF 191652Z AUTO 00000KT 7SM OVC007 03/01 A3028 RMK AO2 SLP258 T00280011
Loading
Personal Weather Stations






























Interactive Weather Map New forecast layout! Learn more

10-Day Weather Forecast

Advertisements
Track Severe Weather on mobile